createdAt,value
2022-09-26T00:15:26.580Z,67.39
2022-09-26T01:00:27.226Z,67.52
2022-09-26T01:02:54.633Z,67.38
2022-09-26T01:05:22.884Z,67.78
2022-09-26T01:07:50.287Z,67.49
2022-09-26T01:10:17.693Z,67.59
2022-09-26T01:12:45.082Z,67.83
2022-09-26T01:15:12.649Z,67.82
2022-09-26T01:17:43.174Z,67.83
2022-09-26T01:20:18.288Z,67.87
2022-09-26T01:23:18.677Z,67.49
2022-09-26T01:26:00.036Z,67.51
2022-09-26T01:28:35.527Z,67.56
2022-09-26T01:31:06.561Z,67.47
2022-09-26T01:33:46.888Z,67.72
2022-09-26T01:36:23.959Z,67.48
2022-09-26T01:38:57.096Z,67.70
2022-09-26T01:41:30.301Z,68.00
2022-09-26T01:43:58.660Z,67.85
2022-09-26T01:46:30.905Z,68.02
2022-09-26T01:48:58.956Z,67.84
2022-09-26T01:51:28.487Z,68.01
2022-09-26T01:53:57.027Z,67.72
2022-09-26T01:56:25.994Z,67.87
2022-09-26T01:58:54.504Z,68.15
2022-09-26T02:01:22.658Z,68.17
2022-09-26T02:03:53.898Z,68.07
2022-09-26T02:06:24.094Z,68.05
2022-09-26T02:08:53.626Z,67.96
2022-09-26T02:11:22.382Z,67.65
2022-09-26T02:13:51.798Z,67.79
2022-09-26T02:16:21.888Z,67.87
2022-09-26T02:18:51.917Z,67.93
2022-09-26T02:21:20.712Z,67.75
2022-09-26T02:23:48.129Z,67.85
2022-09-26T02:26:15.749Z,67.89
2022-09-26T02:28:43.155Z,68.15
2022-09-26T02:31:14.718Z,68.06
2022-09-26T02:33:42.242Z,67.74
2022-09-26T02:36:11.085Z,67.70
2022-09-26T02:38:38.572Z,67.85
2022-09-26T02:41:29.064Z,68.11
2022-09-26T02:44:04.727Z,68.04
2022-09-26T02:46:57.448Z,68.07
2022-09-26T02:49:45.058Z,68.01
2022-09-26T02:52:21.699Z,68.14
2022-09-26T02:54:54.385Z,67.85
2022-09-26T02:57:27.633Z,67.81
2022-09-26T02:59:59.625Z,67.75
2022-09-26T03:02:30.451Z,67.61
2022-09-26T03:05:18.617Z,67.92
2022-09-26T03:07:48.581Z,68.08
2022-09-26T03:10:15.992Z,67.69
2022-09-26T03:12:44.673Z,67.81
2022-09-26T03:15:12.745Z,67.70
2022-09-26T03:17:42.483Z,67.55
2022-09-26T03:20:12.017Z,67.53
2022-09-26T03:22:40.232Z,68.23
2022-09-26T03:25:10.965Z,67.60
2022-09-26T03:27:44.383Z,67.90
2022-09-26T03:30:12.416Z,67.70
2022-09-26T03:32:49.136Z,67.71
2022-09-26T03:35:16.803Z,67.82
2022-09-26T03:37:44.401Z,67.83
2022-09-26T03:40:13.570Z,67.72
2022-09-26T03:43:03.816Z,67.73
2022-09-26T03:45:32.286Z,67.68
2022-09-26T03:48:04.400Z,67.82
2022-09-26T03:50:33.618Z,67.92
2022-09-26T03:53:01.069Z,67.55
2022-09-26T03:55:30.071Z,67.81
2022-09-26T03:57:57.474Z,67.64
2022-09-26T04:00:31.602Z,67.57
2022-09-26T04:03:01.808Z,67.85
2022-09-26T04:05:36.979Z,67.63
2022-09-26T04:08:05.680Z,67.76
2022-09-26T04:10:34.775Z,67.69
2022-09-26T04:13:03.086Z,67.50
2022-09-26T04:15:30.892Z,67.67
2022-09-26T04:18:06.412Z,67.98
2022-09-26T04:20:34.426Z,67.64
2022-09-26T04:23:01.857Z,67.43
2022-09-26T04:25:30.136Z,67.54
2022-09-26T04:27:59.203Z,67.69
2022-09-26T04:30:27.012Z,67.76
2022-09-26T04:32:58.387Z,67.53
2022-09-26T04:35:34.545Z,67.53
2022-09-26T04:38:02.025Z,67.55
2022-09-26T04:40:30.110Z,67.43
2022-09-26T04:43:10.487Z,67.26
2022-09-26T04:45:41.080Z,67.34
2022-09-26T04:48:10.121Z,67.13
2022-09-26T04:51:00.705Z,67.16
2022-09-26T04:53:29.547Z,67.62
2022-09-26T04:56:04.992Z,67.10
2022-09-26T04:58:34.101Z,67.17
2022-09-26T05:01:02.991Z,67.22
2022-09-26T05:03:42.365Z,67.21
2022-09-26T05:06:09.956Z,67.19
2022-09-26T05:08:37.434Z,66.96
2022-09-26T05:11:06.471Z,67.00
2022-09-26T05:13:35.382Z,67.08
2022-09-26T05:16:03.675Z,67.27
2022-09-26T05:18:31.152Z,66.93
2022-09-26T05:21:01.131Z,66.92
2022-09-26T05:23:46.115Z,67.22
2022-09-26T05:26:22.244Z,67.03
2022-09-26T05:28:52.347Z,67.21
2022-09-26T05:31:25.243Z,67.09
2022-09-26T05:33:52.925Z,67.14
2022-09-26T05:36:20.422Z,67.27
2022-09-26T05:38:47.828Z,67.19
2022-09-26T05:41:15.003Z,67.32
2022-09-26T05:43:42.420Z,67.24
2022-09-26T05:46:13.906Z,67.20
2022-09-26T05:48:47.131Z,67.16
2022-09-26T05:51:21.098Z,67.12
2022-09-26T05:53:49.293Z,67.25
2022-09-26T05:56:20.357Z,67.29
2022-09-26T05:59:02.475Z,67.10
2022-09-26T06:01:36.932Z,67.11
2022-09-26T06:04:16.662Z,66.98
2022-09-26T06:07:04.559Z,66.97
2022-09-26T06:09:31.960Z,67.16
2022-09-26T06:12:19.049Z,67.23
2022-09-26T06:14:46.663Z,67.06
2022-09-26T06:17:15.541Z,67.33
2022-09-26T06:19:44.489Z,67.02
2022-09-26T06:22:11.948Z,66.88
2022-09-26T06:24:39.448Z,67.05
2022-09-26T06:27:10.738Z,66.69
2022-09-26T06:29:38.301Z,66.33
2022-09-26T06:32:05.808Z,66.46
2022-09-26T06:35:10.913Z,66.50
2022-09-26T06:37:45.389Z,66.32
2022-09-26T06:40:12.866Z,66.29
2022-09-26T06:42:40.421Z,66.15
2022-09-26T06:45:26.769Z,66.00
2022-09-26T06:48:09.479Z,66.19
2022-09-26T06:51:01.120Z,66.25
2022-09-26T06:53:30.787Z,66.14
2022-09-26T06:55:59.293Z,66.02
2022-09-26T06:58:27.519Z,65.94
2022-09-26T07:00:59.795Z,65.93
2022-09-26T07:03:46.163Z,65.76
2022-09-26T07:06:26.515Z,65.67
2022-09-26T07:09:03.031Z,65.93
2022-09-26T07:12:14.011Z,65.63
2022-09-26T08:30:44.660Z,65.18
2022-09-26T08:33:12.400Z,65.37
2022-09-26T08:35:41.255Z,65.17
2022-09-26T08:38:18.217Z,65.27
2022-09-26T08:40:51.300Z,65.00
2022-09-26T08:43:57.621Z,65.17
2022-09-26T08:46:53.016Z,65.40
2022-09-26T08:49:34.890Z,65.16
2022-09-26T08:52:06.237Z,65.43
2022-09-26T08:54:35.236Z,65.97
2022-09-26T08:57:05.024Z,66.30
2022-09-26T08:59:35.017Z,66.23
2022-09-26T09:02:05.230Z,66.32
2022-09-26T09:04:54.082Z,66.38
2022-09-26T09:07:24.976Z,66.29
2022-09-26T09:09:52.908Z,66.89
2022-09-26T09:12:35.928Z,67.25
2022-09-26T09:15:28.905Z,67.17
2022-09-26T09:18:17.147Z,67.07
2022-09-26T09:21:02.880Z,66.82
2022-09-26T09:24:00.547Z,66.90
2022-09-26T09:29:31.636Z,67.06
2022-09-26T09:32:19.467Z,66.84
2022-09-26T09:35:00.443Z,67.34
2022-09-26T09:37:43.094Z,67.23
2022-09-26T09:40:27.834Z,66.52
2022-09-26T09:43:02.279Z,66.62
2022-09-26T09:45:40.003Z,66.76
2022-09-26T09:48:10.768Z,66.42
2022-09-26T09:50:41.189Z,66.29
2022-09-26T09:53:14.372Z,65.93
2022-09-26T09:55:51.113Z,66.40
2022-09-26T09:58:29.748Z,65.18
2022-09-26T10:01:02.515Z,65.67
2022-09-26T10:03:37.275Z,65.91
2022-09-26T10:06:05.130Z,66.68
2022-09-26T10:08:40.869Z,64.62
2022-09-26T10:11:29.453Z,64.75
2022-09-26T10:13:58.076Z,65.63
2022-09-26T10:16:36.117Z,65.86
2022-09-26T10:19:09.481Z,66.44
2022-09-26T10:21:39.255Z,66.38
2022-09-26T10:24:07.044Z,66.54
2022-09-26T10:27:02.694Z,66.99
2022-09-26T10:29:35.308Z,66.88
2022-09-26T10:32:02.971Z,66.74
2022-09-26T10:34:32.354Z,66.89
2022-09-26T10:37:00.447Z,66.97
2022-09-26T10:39:48.688Z,67.51
2022-09-26T10:42:18.732Z,67.51
2022-09-26T10:44:47.756Z,67.04
2022-09-26T10:47:23.625Z,67.99
2022-09-26T10:50:11.506Z,67.81
2022-09-26T10:52:58.343Z,67.66
2022-09-26T10:55:31.054Z,67.61
2022-09-26T10:58:01.852Z,67.85
2022-09-26T11:00:37.416Z,67.64
2022-09-26T11:03:09.201Z,67.93
2022-09-26T11:05:59.899Z,68.39
2022-09-26T11:08:30.525Z,68.62
2022-09-26T11:11:15.129Z,68.24
2022-09-26T11:13:58.416Z,68.29
2022-09-26T11:16:25.991Z,68.57
2022-09-26T11:19:03.871Z,68.47
2022-09-26T11:21:35.563Z,68.27
2022-09-26T11:24:05.766Z,68.18
2022-09-26T11:26:35.137Z,68.02
2022-09-26T11:29:08.357Z,68.48
2022-09-26T11:31:42.796Z,68.64
2022-09-26T11:34:37.096Z,68.94
2022-09-26T11:37:14.454Z,68.87
2022-09-26T11:39:51.262Z,68.54
2022-09-26T11:42:26.444Z,68.13
2022-09-26T11:44:58.814Z,68.66
2022-09-26T11:47:53.183Z,68.73
2022-09-26T11:50:35.504Z,68.77
2022-09-26T11:53:26.502Z,69.09
2022-09-26T11:56:01.410Z,68.92
2022-09-26T11:58:37.339Z,69.53
2022-09-26T12:01:10.329Z,69.40
2022-09-26T12:04:06.319Z,69.21
2022-09-26T12:06:35.185Z,69.30
2022-09-26T12:09:12.645Z,69.10
2022-09-26T12:11:43.075Z,69.03
2022-09-26T12:14:16.434Z,68.79
2022-09-26T12:16:49.877Z,69.10
2022-09-26T12:19:20.564Z,69.04
2022-09-26T12:22:10.439Z,69.07
2022-09-26T12:24:40.926Z,68.86
2022-09-26T12:27:11.883Z,69.29
2022-09-26T12:29:40.586Z,69.41
2022-09-26T12:32:19.728Z,69.59
2022-09-26T12:34:55.202Z,69.42
2022-09-26T12:37:33.617Z,69.22
2022-09-26T12:40:10.286Z,69.38
2022-09-26T12:42:45.564Z,69.49
2022-09-26T12:45:31.603Z,69.31
2022-09-26T12:48:20.132Z,69.41
2022-09-26T12:50:53.234Z,69.18
2022-09-26T12:53:34.300Z,69.04
2022-09-26T12:56:06.936Z,69.33
2022-09-26T12:58:50.949Z,69.52
2022-09-26T13:01:35.892Z,69.50
2022-09-26T13:04:24.839Z,69.41
2022-09-26T13:07:20.744Z,69.45
2022-09-26T13:10:01.379Z,69.58
2022-09-26T13:12:38.848Z,69.99
2022-09-26T13:15:12.064Z,69.71
2022-09-26T13:17:41.586Z,69.60
2022-09-26T13:20:15.992Z,69.46
2022-09-26T13:22:44.574Z,69.58
2022-09-26T13:25:18.864Z,70.20
2022-09-26T13:27:49.241Z,70.17
2022-09-26T13:30:18.116Z,69.62
2022-09-26T13:32:53.137Z,69.51
2022-09-26T13:35:23.651Z,69.73
2022-09-26T13:38:01.294Z,69.58
2022-09-26T13:40:35.620Z,69.61
2022-09-26T13:43:09.081Z,69.69
2022-09-26T13:45:45.723Z,69.70
2022-09-26T13:48:15.327Z,69.87
2022-09-26T13:50:46.264Z,69.86
2022-09-26T13:53:17.579Z,69.62
2022-09-26T13:55:45.077Z,69.48
2022-09-26T13:58:21.073Z,70.00
2022-09-26T14:00:53.245Z,69.76
2022-09-26T14:03:38.696Z,69.72
2022-09-26T14:06:28.754Z,69.66
2022-09-26T14:09:24.804Z,69.90
2022-09-26T14:12:20.868Z,69.74
2022-09-26T14:14:53.395Z,69.80
2022-09-26T14:17:54.615Z,70.56
2022-09-26T14:20:24.867Z,70.42
2022-09-26T14:22:55.032Z,70.25
2022-09-26T14:25:57.468Z,70.18
2022-09-26T14:28:34.980Z,70.41
2022-09-26T14:31:17.613Z,70.24
2022-09-26T14:33:45.267Z,70.34
2022-09-26T14:36:24.925Z,70.18
2022-09-26T14:38:53.727Z,71.07
2022-09-26T14:41:21.697Z,70.84
2022-09-26T14:46:18.012Z,70.81
2022-09-26T14:48:45.505Z,71.00
2022-09-26T14:51:24.948Z,70.95
2022-09-26T14:53:56.350Z,70.68
2022-09-26T14:56:32.480Z,70.97
2022-09-26T14:59:22.882Z,70.92
2022-09-26T15:01:50.649Z,71.02
2022-09-26T15:04:19.804Z,70.93
2022-09-26T15:06:48.107Z,70.89
2022-09-26T15:09:23.342Z,71.13
2022-09-26T15:11:53.061Z,71.12
2022-09-26T15:14:27.114Z,70.85
2022-09-26T15:16:54.948Z,71.17
2022-09-26T15:19:23.408Z,71.11
2022-09-26T15:21:52.252Z,71.20
2022-09-26T15:24:26.338Z,71.04
2022-09-26T15:26:53.813Z,71.28
2022-09-26T15:29:22.062Z,70.99
2022-09-26T15:31:51.433Z,71.26
2022-09-26T15:34:20.752Z,71.32
2022-09-26T15:36:49.399Z,70.87
2022-09-26T15:39:38.396Z,70.95
2022-09-26T15:42:44.482Z,71.08
2022-09-26T15:45:33.890Z,70.94
2022-09-26T15:48:03.113Z,71.18
2022-09-26T15:50:41.289Z,71.12
2022-09-26T15:53:12.093Z,71.20
2022-09-26T15:55:46.387Z,71.35
2022-09-26T15:58:15.105Z,71.01
2022-09-26T16:00:47.724Z,70.89
2022-09-26T16:03:20.665Z,71.03
2022-09-26T16:05:48.080Z,70.91
2022-09-26T16:08:20.352Z,70.90
2022-09-26T16:10:54.141Z,70.68
2022-09-26T16:13:25.300Z,71.00
2022-09-26T16:16:02.966Z,70.98
2022-09-26T16:18:36.819Z,70.78
2022-09-26T16:21:20.028Z,71.12
2022-09-26T16:23:48.749Z,70.78
2022-09-26T16:26:25.208Z,70.80
2022-09-26T16:28:55.045Z,70.96
2022-09-26T16:31:34.390Z,70.64
2022-09-26T16:34:02.412Z,71.05
2022-09-26T16:36:30.294Z,70.75
2022-09-26T16:38:59.212Z,70.81
2022-09-26T16:41:59.431Z,70.82
2022-09-26T16:44:26.195Z,70.88
2022-09-26T16:46:55.838Z,70.89
2022-09-26T16:49:34.799Z,70.62
2022-09-26T16:52:26.515Z,70.37
2022-09-26T16:54:54.119Z,70.62
2022-09-26T16:57:23.816Z,70.76
2022-09-26T16:59:51.201Z,70.53
2022-09-26T17:02:17.968Z,70.44
2022-09-26T17:04:45.421Z,70.68
2022-09-26T17:07:13.892Z,70.45
2022-09-26T17:09:42.699Z,70.72
2022-09-26T17:12:15.321Z,70.43
2022-09-26T17:14:44.087Z,70.82
2022-09-26T17:17:16.033Z,70.50
2022-09-26T17:19:46.124Z,70.43
2022-09-26T17:22:14.366Z,70.49
2022-09-26T17:24:42.377Z,70.52
2022-09-26T17:27:16.564Z,70.59
2022-09-26T17:29:47.311Z,70.58
2022-09-26T17:32:16.310Z,70.57
2022-09-26T17:34:44.479Z,70.53
2022-09-26T17:37:12.155Z,70.54
2022-09-26T17:39:39.592Z,70.72
2022-09-26T17:42:07.021Z,70.75
2022-09-26T17:44:35.064Z,70.51
2022-09-26T17:47:03.768Z,70.72
2022-09-26T17:49:31.795Z,70.55
2022-09-26T17:52:00.930Z,70.53
2022-09-26T17:54:30.523Z,70.72
2022-09-26T17:56:58.720Z,70.59
2022-09-26T17:59:26.611Z,71.38
2022-09-26T18:01:56.657Z,72.05
2022-09-26T18:04:29.063Z,71.85
2022-09-26T18:06:57.239Z,71.35
2022-09-26T18:09:24.674Z,71.23
2022-09-26T18:11:57.276Z,71.11
2022-09-26T18:14:24.711Z,71.47
2022-09-26T18:16:52.191Z,70.95
2022-09-26T18:19:20.912Z,71.17
2022-09-26T18:21:50.261Z,70.93
2022-09-26T18:24:19.868Z,70.96
2022-09-26T18:26:48.514Z,70.84
2022-09-26T18:29:18.080Z,71.13
2022-09-26T18:31:45.669Z,71.02
2022-09-26T18:34:16.149Z,71.02
2022-09-26T18:36:43.841Z,70.92
2022-09-26T18:39:12.729Z,70.95
2022-09-26T18:41:40.349Z,70.75
2022-09-26T18:44:10.381Z,70.38
2022-09-26T18:46:40.340Z,70.08
2022-09-26T18:49:09.748Z,70.29
2022-09-26T18:51:37.184Z,69.83
2022-09-26T18:54:10.695Z,69.77
2022-09-26T18:56:57.803Z,69.53
2022-09-26T18:59:28.918Z,69.61
2022-09-26T19:01:57.477Z,69.41
2022-09-26T19:04:26.108Z,69.27
2022-09-26T19:06:57.835Z,69.07
2022-09-26T19:09:25.287Z,68.71
2022-09-26T19:11:54.019Z,68.99
2022-09-26T19:14:22.372Z,68.66
2022-09-26T19:16:50.237Z,69.07
2022-09-26T19:19:17.893Z,68.82
2022-09-26T19:21:47.223Z,68.65
2022-09-26T19:24:20.274Z,68.55
2022-09-26T19:26:48.921Z,68.60
2022-09-26T19:29:26.209Z,68.76
2022-09-26T19:31:53.646Z,68.55
2022-09-26T19:34:21.108Z,68.65
2022-09-26T19:36:50.463Z,68.60
2022-09-26T19:39:17.890Z,68.67
2022-09-26T19:41:45.519Z,68.08
2022-09-26T19:44:13.287Z,68.43
2022-09-26T19:46:42.261Z,68.22
2022-09-26T19:49:15.233Z,68.33
2022-09-26T19:51:43.150Z,68.55
2022-09-26T19:54:13.492Z,68.36
2022-09-26T19:56:41.002Z,68.24
2022-09-26T19:59:09.424Z,68.17
2022-09-26T20:01:36.944Z,68.10
2022-09-26T20:04:08.359Z,68.38
2022-09-26T20:06:35.850Z,68.17
2022-09-26T20:09:03.885Z,68.14
2022-09-26T20:11:31.636Z,67.99
2022-09-26T20:14:16.742Z,67.69
2022-09-26T20:16:44.270Z,67.75
2022-09-26T20:19:16.020Z,68.08
2022-09-26T20:21:44.660Z,68.02
2022-09-26T20:24:14.064Z,67.98
2022-09-26T20:26:42.380Z,68.07
2022-09-26T20:29:12.321Z,67.95
2022-09-26T20:31:39.952Z,67.87
2022-09-26T20:34:07.360Z,68.12
2022-09-26T20:36:37.047Z,68.14
2022-09-26T20:39:05.775Z,68.10
2022-09-26T20:41:34.037Z,68.29
2022-09-26T20:44:02.179Z,68.01
2022-09-26T20:46:30.095Z,68.07
2022-09-26T20:48:57.524Z,67.86
2022-09-26T20:51:25.513Z,67.99
2022-09-26T20:53:54.286Z,67.47
2022-09-26T20:56:21.716Z,67.61
2022-09-26T20:58:49.139Z,67.17
2022-09-26T21:01:17.077Z,67.44
2022-09-26T21:03:47.303Z,67.42
2022-09-26T21:06:16.615Z,69.83
2022-09-26T21:08:43.987Z,70.92
2022-09-26T21:11:15.057Z,72.12
2022-09-26T21:13:43.004Z,71.96
2022-09-26T21:16:13.277Z,72.44
2022-09-26T21:18:40.666Z,72.01
2022-09-26T21:21:09.355Z,72.09
2022-09-26T21:23:51.447Z,71.74
2022-09-26T21:26:21.009Z,71.77
2022-09-26T21:28:49.103Z,71.15
2022-09-26T21:31:20.561Z,71.03
2022-09-26T21:33:48.046Z,70.73
2022-09-26T21:36:15.522Z,70.70
2022-09-26T21:38:42.977Z,70.82
2022-09-26T21:41:10.384Z,70.40
2022-09-26T21:43:39.782Z,70.50
2022-09-26T21:46:07.268Z,70.68
2022-09-26T21:48:34.763Z,70.74
2022-09-26T21:51:03.095Z,70.85
2022-09-26T21:53:32.136Z,70.55
2022-09-26T21:56:03.757Z,70.72
2022-09-26T21:58:36.980Z,70.71
2022-09-26T22:01:06.028Z,70.62
2022-09-26T22:03:34.012Z,71.01
2022-09-26T22:06:06.263Z,70.94
2022-09-26T22:08:34.812Z,70.77
2022-09-26T22:11:03.099Z,70.63
2022-09-26T22:13:30.487Z,70.57
2022-09-26T22:16:06.405Z,70.52
2022-09-26T22:18:34.019Z,70.45
2022-09-26T22:21:03.747Z,70.51
2022-09-26T22:23:31.409Z,70.39
2022-09-26T22:25:58.789Z,70.54
2022-09-26T22:28:26.274Z,70.50
2022-09-26T22:30:54.502Z,70.81
2022-09-26T22:33:23.233Z,70.58
2022-09-26T22:35:50.696Z,70.37
2022-09-26T22:38:18.203Z,70.61
2022-09-26T22:40:46.159Z,70.76
2022-09-26T22:43:13.600Z,70.19
2022-09-26T22:45:41.031Z,71.30
2022-09-26T22:48:08.507Z,71.28
2022-09-26T22:50:37.559Z,72.23
2022-09-26T22:53:04.937Z,72.48
2022-09-26T22:55:32.327Z,72.57
2022-09-26T22:57:59.706Z,73.27
2022-09-26T23:00:27.134Z,73.10
2022-09-26T23:02:54.560Z,73.02
2022-09-26T23:05:21.994Z,73.15
2022-09-26T23:07:53.650Z,73.15
2022-09-26T23:10:22.121Z,73.19
2022-09-26T23:12:50.544Z,73.10
2022-09-26T23:15:19.298Z,73.14
2022-09-26T23:17:47.183Z,73.08
2022-09-26T23:20:14.613Z,73.34
2022-09-26T23:22:41.987Z,73.26
2022-09-26T23:25:11.717Z,73.02
2022-09-26T23:27:39.094Z,73.42
2022-09-26T23:30:07.833Z,73.58
2022-09-26T23:32:35.228Z,73.37
2022-09-26T23:35:02.606Z,73.41
2022-09-26T23:37:31.019Z,73.53
2022-09-26T23:39:58.408Z,73.51
2022-09-26T23:42:27.093Z,73.56
2022-09-26T23:44:54.512Z,73.45
2022-09-26T23:47:21.891Z,73.34
2022-09-26T23:49:49.260Z,73.46
2022-09-26T23:52:16.644Z,73.60
2022-09-26T23:54:44.009Z,73.64
2022-09-26T23:57:11.436Z,73.53
2022-09-26T23:59:40.131Z,73.35
